sensor_id;sensor_type;location;lat;lon;timestamp;P1;durP1;ratioP1;P2;durP2;ratioP2
21239;SDS011;10778;48.962;9.018;2023-04-25T00:00:47;6.18;;;3.58;;
21239;SDS011;10778;48.962;9.018;2023-04-25T00:03:13;6.28;;;3.70;;
21239;SDS011;10778;48.962;9.018;2023-04-25T00:05:39;4.57;;;3.45;;
21239;SDS011;10778;48.962;9.018;2023-04-25T00:08:05;5.88;;;3.42;;
21239;SDS011;10778;48.962;9.018;2023-04-25T00:10:31;4.20;;;3.65;;
21239;SDS011;10778;48.962;9.018;2023-04-25T00:12:57;6.03;;;3.72;;
21239;SDS011;10778;48.962;9.018;2023-04-25T00:15:24;5.80;;;4.00;;
21239;SDS011;10778;48.962;9.018;2023-04-25T00:17:50;5.75;;;4.10;;
21239;SDS011;10778;48.962;9.018;2023-04-25T00:20:18;5.15;;;3.97;;
21239;SDS011;10778;48.962;9.018;2023-04-25T00:22:44;5.38;;;4.10;;
21239;SDS011;10778;48.962;9.018;2023-04-25T00:25:10;7.78;;;3.90;;
21239;SDS011;10778;48.962;9.018;2023-04-25T00:27:36;6.45;;;3.97;;
21239;SDS011;10778;48.962;9.018;2023-04-25T00:30:05;5.07;;;4.18;;
21239;SDS011;10778;48.962;9.018;2023-04-25T00:32:31;6.18;;;4.10;;
21239;SDS011;10778;48.962;9.018;2023-04-25T00:34:57;5.57;;;4.28;;
21239;SDS011;10778;48.962;9.018;2023-04-25T00:37:24;5.10;;;4.10;;
21239;SDS011;10778;48.962;9.018;2023-04-25T00:39:50;5.53;;;4.32;;
21239;SDS011;10778;48.962;9.018;2023-04-25T00:42:16;5.18;;;3.70;;
21239;SDS011;10778;48.962;9.018;2023-04-25T00:44:43;6.40;;;3.60;;
21239;SDS011;10778;48.962;9.018;2023-04-25T00:47:10;5.55;;;3.70;;
21239;SDS011;10778;48.962;9.018;2023-04-25T00:49:37;6.78;;;3.60;;
21239;SDS011;10778;48.962;9.018;2023-04-25T00:52:03;5.38;;;3.88;;
21239;SDS011;10778;48.962;9.018;2023-04-25T00:54:29;4.97;;;4.07;;
21239;SDS011;10778;48.962;9.018;2023-04-25T00:56:57;6.35;;;4.18;;
21239;SDS011;10778;48.962;9.018;2023-04-25T00:59:23;5.80;;;4.03;;
21239;SDS011;10778;48.962;9.018;2023-04-25T01:01:49;5.43;;;3.92;;
21239;SDS011;10778;48.962;9.018;2023-04-25T01:04:16;6.03;;;4.18;;
21239;SDS011;10778;48.962;9.018;2023-04-25T01:06:42;5.80;;;4.13;;
21239;SDS011;10778;48.962;9.018;2023-04-25T01:09:08;5.53;;;3.88;;
21239;SDS011;10778;48.962;9.018;2023-04-25T01:11:35;8.02;;;4.63;;
21239;SDS011;10778;48.962;9.018;2023-04-25T01:14:01;4.97;;;4.18;;
21239;SDS011;10778;48.962;9.018;2023-04-25T01:16:27;6.82;;;4.15;;
21239;SDS011;10778;48.962;9.018;2023-04-25T01:18:53;7.03;;;4.18;;
21239;SDS011;10778;48.962;9.018;2023-04-25T01:21:19;5.20;;;4.13;;
21239;SDS011;10778;48.962;9.018;2023-04-25T01:23:47;5.22;;;4.32;;
21239;SDS011;10778;48.962;9.018;2023-04-25T01:26:13;8.85;;;4.38;;
21239;SDS011;10778;48.962;9.018;2023-04-25T01:28:40;5.97;;;4.43;;
21239;SDS011;10778;48.962;9.018;2023-04-25T01:31:07;4.85;;;3.90;;
21239;SDS011;10778;48.962;9.018;2023-04-25T01:33:34;5.50;;;4.38;;
21239;SDS011;10778;48.962;9.018;2023-04-25T01:36:00;5.32;;;4.03;;
21239;SDS011;10778;48.962;9.018;2023-04-25T01:38:26;5.38;;;4.28;;
21239;SDS011;10778;48.962;9.018;2023-04-25T01:40:54;6.53;;;4.63;;
21239;SDS011;10778;48.962;9.018;2023-04-25T01:43:21;5.43;;;4.40;;
21239;SDS011;10778;48.962;9.018;2023-04-25T01:45:48;6.72;;;4.43;;
21239;SDS011;10778;48.962;9.018;2023-04-25T01:48:15;5.85;;;4.18;;
21239;SDS011;10778;48.962;9.018;2023-04-25T01:50:43;8.23;;;4.75;;
21239;SDS011;10778;48.962;9.018;2023-04-25T01:53:11;5.88;;;4.50;;
21239;SDS011;10778;48.962;9.018;2023-04-25T01:55:40;7.20;;;4.45;;
21239;SDS011;10778;48.962;9.018;2023-04-25T01:58:13;5.78;;;3.90;;
21239;SDS011;10778;48.962;9.018;2023-04-25T02:01:05;5.22;;;4.20;;
21239;SDS011;10778;48.962;9.018;2023-04-25T02:03:39;6.80;;;4.35;;
21239;SDS011;10778;48.962;9.018;2023-04-25T02:06:09;6.40;;;4.30;;
21239;SDS011;10778;48.962;9.018;2023-04-25T02:08:40;7.40;;;4.28;;
21239;SDS011;10778;48.962;9.018;2023-04-25T02:11:05;5.35;;;3.95;;
21239;SDS011;10778;48.962;9.018;2023-04-25T02:13:39;8.60;;;6.65;;
21239;SDS011;10778;48.962;9.018;2023-04-25T02:16:31;5.90;;;4.50;;
21239;SDS011;10778;48.962;9.018;2023-04-25T02:18:58;6.45;;;3.85;;
21239;SDS011;10778;48.962;9.018;2023-04-25T02:21:25;4.72;;;3.60;;
21239;SDS011;10778;48.962;9.018;2023-04-25T02:23:52;5.03;;;3.40;;
21239;SDS011;10778;48.962;9.018;2023-04-25T02:26:18;3.70;;;3.28;;
21239;SDS011;10778;48.962;9.018;2023-04-25T02:28:44;3.47;;;2.80;;
21239;SDS011;10778;48.962;9.018;2023-04-25T02:31:09;4.18;;;2.90;;
21239;SDS011;10778;48.962;9.018;2023-04-25T02:33:35;4.40;;;3.00;;
21239;SDS011;10778;48.962;9.018;2023-04-25T02:36:01;3.65;;;2.90;;
21239;SDS011;10778;48.962;9.018;2023-04-25T02:38:28;6.20;;;3.45;;
21239;SDS011;10778;48.962;9.018;2023-04-25T02:40:56;6.50;;;3.92;;
21239;SDS011;10778;48.962;9.018;2023-04-25T02:43:25;8.27;;;3.25;;
21239;SDS011;10778;48.962;9.018;2023-04-25T02:45:51;5.95;;;3.40;;
21239;SDS011;10778;48.962;9.018;2023-04-25T02:48:17;6.22;;;3.78;;
21239;SDS011;10778;48.962;9.018;2023-04-25T02:50:43;6.25;;;3.40;;
21239;SDS011;10778;48.962;9.018;2023-04-25T02:53:10;6.07;;;3.78;;
21239;SDS011;10778;48.962;9.018;2023-04-25T02:55:43;5.97;;;3.55;;
21239;SDS011;10778;48.962;9.018;2023-04-25T02:58:09;5.40;;;3.47;;
21239;SDS011;10778;48.962;9.018;2023-04-25T03:00:50;4.70;;;3.33;;
21239;SDS011;10778;48.962;9.018;2023-04-25T03:03:16;5.30;;;3.33;;
21239;SDS011;10778;48.962;9.018;2023-04-25T03:05:44;5.32;;;3.20;;
21239;SDS011;10778;48.962;9.018;2023-04-25T03:08:11;4.22;;;3.25;;
21239;SDS011;10778;48.962;9.018;2023-04-25T03:10:38;4.15;;;3.22;;
21239;SDS011;10778;48.962;9.018;2023-04-25T03:13:07;4.97;;;3.72;;
21239;SDS011;10778;48.962;9.018;2023-04-25T03:15:33;5.63;;;3.65;;
21239;SDS011;10778;48.962;9.018;2023-04-25T03:18:01;6.50;;;3.70;;
21239;SDS011;10778;48.962;9.018;2023-04-25T03:20:27;5.50;;;3.60;;
21239;SDS011;10778;48.962;9.018;2023-04-25T03:22:53;5.38;;;3.85;;
21239;SDS011;10778;48.962;9.018;2023-04-25T03:25:19;5.18;;;3.80;;
21239;SDS011;10778;48.962;9.018;2023-04-25T03:27:46;5.68;;;3.72;;
21239;SDS011;10778;48.962;9.018;2023-04-25T03:30:11;6.80;;;4.00;;
21239;SDS011;10778;48.962;9.018;2023-04-25T03:32:39;4.45;;;3.53;;
21239;SDS011;10778;48.962;9.018;2023-04-25T03:35:06;5.25;;;3.80;;
21239;SDS011;10778;48.962;9.018;2023-04-25T03:37:32;5.13;;;3.72;;
21239;SDS011;10778;48.962;9.018;2023-04-25T03:39:58;5.63;;;3.80;;
21239;SDS011;10778;48.962;9.018;2023-04-25T03:42:32;4.72;;;3.65;;
21239;SDS011;10778;48.962;9.018;2023-04-25T03:44:58;6.60;;;4.30;;
21239;SDS011;10778;48.962;9.018;2023-04-25T03:47:24;6.10;;;4.18;;
21239;SDS011;10778;48.962;9.018;2023-04-25T03:49:51;5.68;;;4.28;;
21239;SDS011;10778;48.962;9.018;2023-04-25T03:52:21;7.00;;;4.50;;
21239;SDS011;10778;48.962;9.018;2023-04-25T03:54:47;6.88;;;4.47;;
21239;SDS011;10778;48.962;9.018;2023-04-25T03:57:17;6.88;;;4.85;;
21239;SDS011;10778;48.962;9.018;2023-04-25T03:59:43;7.72;;;4.40;;
21239;SDS011;10778;48.962;9.018;2023-04-25T04:02:12;5.70;;;4.53;;
21239;SDS011;10778;48.962;9.018;2023-04-25T04:04:39;6.95;;;4.78;;
21239;SDS011;10778;48.962;9.018;2023-04-25T04:07:05;6.72;;;5.00;;
21239;SDS011;10778;48.962;9.018;2023-04-25T04:09:35;6.68;;;4.78;;
21239;SDS011;10778;48.962;9.018;2023-04-25T04:12:06;8.98;;;5.13;;
21239;SDS011;10778;48.962;9.018;2023-04-25T04:14:33;7.28;;;4.75;;
21239;SDS011;10778;48.962;9.018;2023-04-25T04:16:59;5.55;;;4.75;;
21239;SDS011;10778;48.962;9.018;2023-04-25T04:19:25;5.20;;;4.70;;
21239;SDS011;10778;48.962;9.018;2023-04-25T04:22:02;5.85;;;4.72;;
21239;SDS011;10778;48.962;9.018;2023-04-25T04:24:28;5.93;;;4.22;;
21239;SDS011;10778;48.962;9.018;2023-04-25T04:26:59;6.00;;;4.85;;
21239;SDS011;10778;48.962;9.018;2023-04-25T04:29:45;5.80;;;4.68;;
21239;SDS011;10778;48.962;9.018;2023-04-25T04:32:20;6.60;;;4.35;;
21239;SDS011;10778;48.962;9.018;2023-04-25T04:34:46;5.93;;;4.90;;
21239;SDS011;10778;48.962;9.018;2023-04-25T04:37:14;6.85;;;4.53;;
21239;SDS011;10778;48.962;9.018;2023-04-25T04:39:41;6.38;;;4.47;;
21239;SDS011;10778;48.962;9.018;2023-04-25T04:42:20;5.22;;;4.72;;
21239;SDS011;10778;48.962;9.018;2023-04-25T04:45:00;6.97;;;4.93;;
21239;SDS011;10778;48.962;9.018;2023-04-25T04:47:46;6.25;;;4.75;;
21239;SDS011;10778;48.962;9.018;2023-04-25T04:50:17;4.68;;;4.28;;
21239;SDS011;10778;48.962;9.018;2023-04-25T04:53:03;5.95;;;4.63;;
21239;SDS011;10778;48.962;9.018;2023-04-25T04:55:41;6.80;;;4.53;;
21239;SDS011;10778;48.962;9.018;2023-04-25T04:58:31;4.55;;;4.13;;
21239;SDS011;10778;48.962;9.018;2023-04-25T05:01:06;5.15;;;4.25;;
21239;SDS011;10778;48.962;9.018;2023-04-25T05:03:53;5.32;;;4.50;;
21239;SDS011;10778;48.962;9.018;2023-04-25T05:06:41;6.70;;;4.63;;
21239;SDS011;10778;48.962;9.018;2023-04-25T05:09:41;6.68;;;4.63;;
21239;SDS011;10778;48.962;9.018;2023-04-25T05:12:21;4.88;;;4.38;;
21239;SDS011;10778;48.962;9.018;2023-04-25T05:14:47;5.85;;;4.72;;
21239;SDS011;10778;48.962;9.018;2023-04-25T05:17:32;5.97;;;4.65;;
21239;SDS011;10778;48.962;9.018;2023-04-25T05:20:11;5.65;;;4.53;;
21239;SDS011;10778;48.962;9.018;2023-04-25T05:22:57;6.50;;;4.72;;
21239;SDS011;10778;48.962;9.018;2023-04-25T05:25:59;7.82;;;5.05;;
21239;SDS011;10778;48.962;9.018;2023-04-25T05:28:45;6.43;;;4.60;;
21239;SDS011;10778;48.962;9.018;2023-04-25T05:31:30;5.35;;;4.60;;
21239;SDS011;10778;48.962;9.018;2023-04-25T05:34:01;8.85;;;4.63;;
21239;SDS011;10778;48.962;9.018;2023-04-25T05:36:39;4.65;;;4.10;;
21239;SDS011;10778;48.962;9.018;2023-04-25T05:39:05;9.13;;;4.78;;
21239;SDS011;10778;48.962;9.018;2023-04-25T05:41:57;8.85;;;4.43;;
21239;SDS011;10778;48.962;9.018;2023-04-25T05:44:44;12.23;;;4.68;;
21239;SDS011;10778;48.962;9.018;2023-04-25T05:47:21;5.90;;;4.15;;
21239;SDS011;10778;48.962;9.018;2023-04-25T05:50:14;8.50;;;4.47;;
21239;SDS011;10778;48.962;9.018;2023-04-25T05:52:53;5.85;;;4.03;;
21239;SDS011;10778;48.962;9.018;2023-04-25T05:55:48;6.45;;;4.20;;
21239;SDS011;10778;48.962;9.018;2023-04-25T05:58:25;5.93;;;4.00;;
21239;SDS011;10778;48.962;9.018;2023-04-25T06:00:53;7.35;;;3.90;;
21239;SDS011;10778;48.962;9.018;2023-04-25T06:03:18;5.88;;;4.28;;
21239;SDS011;10778;48.962;9.018;2023-04-25T06:05:45;4.20;;;3.80;;
21239;SDS011;10778;48.962;9.018;2023-04-25T06:08:11;5.28;;;4.00;;
21239;SDS011;10778;48.962;9.018;2023-04-25T06:10:37;4.93;;;4.13;;
21239;SDS011;10778;48.962;9.018;2023-04-25T06:13:04;7.00;;;3.85;;
21239;SDS011;10778;48.962;9.018;2023-04-25T06:15:32;5.85;;;3.97;;
21239;SDS011;10778;48.962;9.018;2023-04-25T06:18:00;5.28;;;3.50;;
21239;SDS011;10778;48.962;9.018;2023-04-25T06:20:26;4.65;;;4.10;;
21239;SDS011;10778;48.962;9.018;2023-04-25T06:22:54;4.35;;;3.90;;
21239;SDS011;10778;48.962;9.018;2023-04-25T06:25:27;5.07;;;3.78;;
21239;SDS011;10778;48.962;9.018;2023-04-25T06:27:54;5.43;;;3.80;;
21239;SDS011;10778;48.962;9.018;2023-04-25T06:30:21;4.68;;;3.72;;
21239;SDS011;10778;48.962;9.018;2023-04-25T06:32:53;5.53;;;4.00;;
21239;SDS011;10778;48.962;9.018;2023-04-25T06:35:20;4.68;;;3.97;;
21239;SDS011;10778;48.962;9.018;2023-04-25T06:37:46;4.95;;;3.90;;
21239;SDS011;10778;48.962;9.018;2023-04-25T06:40:12;6.80;;;4.78;;
21239;SDS011;10778;48.962;9.018;2023-04-25T06:42:39;6.03;;;4.50;;
21239;SDS011;10778;48.962;9.018;2023-04-25T06:45:24;6.95;;;4.88;;
21239;SDS011;10778;48.962;9.018;2023-04-25T06:47:54;8.50;;;5.55;;
21239;SDS011;10778;48.962;9.018;2023-04-25T06:50:21;5.68;;;4.70;;
21239;SDS011;10778;48.962;9.018;2023-04-25T06:52:47;5.30;;;4.18;;
21239;SDS011;10778;48.962;9.018;2023-04-25T06:55:13;4.10;;;3.42;;
21239;SDS011;10778;48.962;9.018;2023-04-25T06:57:58;4.10;;;3.70;;
21239;SDS011;10778;48.962;9.018;2023-04-25T07:00:50;4.85;;;3.55;;
21239;SDS011;10778;48.962;9.018;2023-04-25T07:03:18;5.18;;;4.22;;
21239;SDS011;10778;48.962;9.018;2023-04-25T07:05:45;5.90;;;4.00;;
21239;SDS011;10778;48.962;9.018;2023-04-25T07:08:12;5.68;;;4.00;;
21239;SDS011;10778;48.962;9.018;2023-04-25T07:10:38;6.47;;;4.22;;
21239;SDS011;10778;48.962;9.018;2023-04-25T07:13:04;4.75;;;4.13;;
21239;SDS011;10778;48.962;9.018;2023-04-25T07:15:30;6.57;;;4.00;;
21239;SDS011;10778;48.962;9.018;2023-04-25T07:17:58;5.20;;;3.88;;
21239;SDS011;10778;48.962;9.018;2023-04-25T07:20:24;5.22;;;4.35;;
21239;SDS011;10778;48.962;9.018;2023-04-25T07:22:50;5.68;;;4.30;;
21239;SDS011;10778;48.962;9.018;2023-04-25T07:25:16;5.05;;;4.15;;
21239;SDS011;10778;48.962;9.018;2023-04-25T07:27:43;4.65;;;4.10;;
21239;SDS011;10778;48.962;9.018;2023-04-25T07:30:15;7.57;;;4.40;;
21239;SDS011;10778;48.962;9.018;2023-04-25T07:32:41;4.65;;;4.15;;
21239;SDS011;10778;48.962;9.018;2023-04-25T07:35:08;5.43;;;4.43;;
21239;SDS011;10778;48.962;9.018;2023-04-25T07:37:34;5.57;;;4.28;;
21239;SDS011;10778;48.962;9.018;2023-04-25T07:40:10;7.10;;;3.88;;
21239;SDS011;10778;48.962;9.018;2023-04-25T07:42:42;5.63;;;4.60;;
21239;SDS011;10778;48.962;9.018;2023-04-25T07:45:09;7.22;;;4.75;;
21239;SDS011;10778;48.962;9.018;2023-04-25T07:47:35;6.80;;;4.45;;
21239;SDS011;10778;48.962;9.018;2023-04-25T07:50:02;4.47;;;3.80;;
21239;SDS011;10778;48.962;9.018;2023-04-25T07:52:30;4.68;;;4.10;;
21239;SDS011;10778;48.962;9.018;2023-04-25T07:55:03;3.97;;;3.58;;
21239;SDS011;10778;48.962;9.018;2023-04-25T07:57:40;4.38;;;3.97;;
21239;SDS011;10778;48.962;9.018;2023-04-25T08:00:07;5.82;;;4.28;;
21239;SDS011;10778;48.962;9.018;2023-04-25T08:02:39;4.72;;;3.80;;
21239;SDS011;10778;48.962;9.018;2023-04-25T08:05:09;6.80;;;4.05;;
21239;SDS011;10778;48.962;9.018;2023-04-25T08:07:41;4.70;;;3.70;;
21239;SDS011;10778;48.962;9.018;2023-04-25T08:10:08;7.40;;;4.30;;
21239;SDS011;10778;48.962;9.018;2023-04-25T08:12:34;4.90;;;4.05;;
21239;SDS011;10778;48.962;9.018;2023-04-25T08:15:00;7.30;;;4.68;;
21239;SDS011;10778;48.962;9.018;2023-04-25T08:17:32;5.50;;;4.68;;
21239;SDS011;10778;48.962;9.018;2023-04-25T08:19:58;5.22;;;4.05;;
21239;SDS011;10778;48.962;9.018;2023-04-25T08:22:29;5.88;;;4.47;;
21239;SDS011;10778;48.962;9.018;2023-04-25T08:25:16;6.82;;;4.68;;
21239;SDS011;10778;48.962;9.018;2023-04-25T08:27:43;6.20;;;5.13;;
21239;SDS011;10778;48.962;9.018;2023-04-25T08:30:10;6.72;;;5.47;;
21239;SDS011;10778;48.962;9.018;2023-04-25T08:32:39;6.85;;;5.88;;
21239;SDS011;10778;48.962;9.018;2023-04-25T08:35:35;6.18;;;5.55;;
21239;SDS011;10778;48.962;9.018;2023-04-25T08:38:01;6.20;;;5.60;;
21239;SDS011;10778;48.962;9.018;2023-04-25T08:40:27;7.00;;;6.03;;
21239;SDS011;10778;48.962;9.018;2023-04-25T08:43:00;8.07;;;6.22;;
21239;SDS011;10778;48.962;9.018;2023-04-25T08:45:28;10.57;;;8.48;;
21239;SDS011;10778;48.962;9.018;2023-04-25T08:47:57;15.23;;;12.48;;
21239;SDS011;10778;48.962;9.018;2023-04-25T08:50:24;12.13;;;9.57;;
21239;SDS011;10778;48.962;9.018;2023-04-25T08:52:53;9.38;;;8.20;;
21239;SDS011;10778;48.962;9.018;2023-04-25T08:55:20;8.40;;;7.30;;
21239;SDS011;10778;48.962;9.018;2023-04-25T08:57:50;9.10;;;6.80;;
21239;SDS011;10778;48.962;9.018;2023-04-25T09:00:17;6.93;;;6.20;;
21239;SDS011;10778;48.962;9.018;2023-04-25T09:02:46;8.15;;;6.95;;
21239;SDS011;10778;48.962;9.018;2023-04-25T09:05:13;7.80;;;7.00;;
21239;SDS011;10778;48.962;9.018;2023-04-25T09:07:40;8.65;;;6.10;;
21239;SDS011;10778;48.962;9.018;2023-04-25T09:10:06;7.43;;;6.32;;
21239;SDS011;10778;48.962;9.018;2023-04-25T09:12:35;7.82;;;6.40;;
21239;SDS011;10778;48.962;9.018;2023-04-25T09:15:03;7.63;;;6.30;;
21239;SDS011;10778;48.962;9.018;2023-04-25T09:17:55;10.13;;;6.65;;
21239;SDS011;10778;48.962;9.018;2023-04-25T09:20:22;8.68;;;7.05;;
21239;SDS011;10778;48.962;9.018;2023-04-25T09:22:48;8.00;;;6.57;;
21239;SDS011;10778;48.962;9.018;2023-04-25T09:25:14;8.75;;;7.55;;
21239;SDS011;10778;48.962;9.018;2023-04-25T09:27:51;8.35;;;6.78;;
21239;SDS011;10778;48.962;9.018;2023-04-25T09:30:29;7.63;;;5.07;;
21239;SDS011;10778;48.962;9.018;2023-04-25T09:33:29;7.18;;;5.18;;
21239;SDS011;10778;48.962;9.018;2023-04-25T09:36:03;6.68;;;5.28;;
21239;SDS011;10778;48.962;9.018;2023-04-25T09:39:01;6.38;;;5.28;;
21239;SDS011;10778;48.962;9.018;2023-04-25T09:41:32;6.30;;;4.75;;
21239;SDS011;10778;48.962;9.018;2023-04-25T09:44:03;7.10;;;5.18;;
21239;SDS011;10778;48.962;9.018;2023-04-25T09:46:35;6.72;;;5.32;;
21239;SDS011;10778;48.962;9.018;2023-04-25T09:49:06;6.10;;;5.50;;
21239;SDS011;10778;48.962;9.018;2023-04-25T09:51:38;6.68;;;5.60;;
21239;SDS011;10778;48.962;9.018;2023-04-25T09:54:06;6.07;;;5.47;;
21239;SDS011;10778;48.962;9.018;2023-04-25T09:56:39;12.27;;;8.75;;
21239;SDS011;10778;48.962;9.018;2023-04-25T09:59:07;6.60;;;5.88;;
21239;SDS011;10778;48.962;9.018;2023-04-25T10:01:36;10.75;;;8.45;;
21239;SDS011;10778;48.962;9.018;2023-04-25T10:04:13;9.32;;;7.80;;
21239;SDS011;10778;48.962;9.018;2023-04-25T10:06:55;8.55;;;6.38;;
21239;SDS011;10778;48.962;9.018;2023-04-25T10:09:23;7.93;;;6.22;;
21239;SDS011;10778;48.962;9.018;2023-04-25T10:11:51;9.98;;;6.30;;
21239;SDS011;10778;48.962;9.018;2023-04-25T10:14:18;9.40;;;6.72;;
21239;SDS011;10778;48.962;9.018;2023-04-25T10:16:45;7.30;;;6.55;;
21239;SDS011;10778;48.962;9.018;2023-04-25T10:19:11;8.38;;;7.15;;
21239;SDS011;10778;48.962;9.018;2023-04-25T10:21:40;10.45;;;7.78;;
21239;SDS011;10778;48.962;9.018;2023-04-25T10:24:14;9.05;;;7.90;;
21239;SDS011;10778;48.962;9.018;2023-04-25T10:26:41;9.25;;;6.80;;
21239;SDS011;10778;48.962;9.018;2023-04-25T10:29:07;8.13;;;7.25;;
21239;SDS011;10778;48.962;9.018;2023-04-25T10:31:38;6.70;;;5.93;;
21239;SDS011;10778;48.962;9.018;2023-04-25T10:34:10;6.78;;;5.07;;
21239;SDS011;10778;48.962;9.018;2023-04-25T10:36:36;5.18;;;4.03;;
21239;SDS011;10778;48.962;9.018;2023-04-25T10:39:06;5.47;;;4.80;;
21239;SDS011;10778;48.962;9.018;2023-04-25T10:41:56;7.13;;;5.55;;
21239;SDS011;10778;48.962;9.018;2023-04-25T10:44:30;8.02;;;5.10;;
21239;SDS011;10778;48.962;9.018;2023-04-25T10:46:57;6.30;;;5.07;;
21239;SDS011;10778;48.962;9.018;2023-04-25T10:49:32;8.02;;;5.72;;
21239;SDS011;10778;48.962;9.018;2023-04-25T10:54:49;7.40;;;5.90;;
21239;SDS011;10778;48.962;9.018;2023-04-25T10:57:29;8.88;;;6.30;;
21239;SDS011;10778;48.962;9.018;2023-04-25T11:00:16;8.43;;;5.85;;
21239;SDS011;10778;48.962;9.018;2023-04-25T11:02:45;10.27;;;6.70;;
21239;SDS011;10778;48.962;9.018;2023-04-25T11:05:55;7.93;;;6.25;;
21239;SDS011;10778;48.962;9.018;2023-04-25T11:08:02;6.65;;;5.30;;
21239;SDS011;10778;48.962;9.018;2023-04-25T11:10:34;7.22;;;6.07;;
21239;SDS011;10778;48.962;9.018;2023-04-25T11:13:04;6.93;;;5.22;;
21239;SDS011;10778;48.962;9.018;2023-04-25T11:15:30;7.90;;;6.25;;
21239;SDS011;10778;48.962;9.018;2023-04-25T11:17:56;7.65;;;6.50;;
21239;SDS011;10778;48.962;9.018;2023-04-25T11:20:24;9.00;;;6.72;;
21239;SDS011;10778;48.962;9.018;2023-04-25T11:22:51;7.68;;;6.22;;
21239;SDS011;10778;48.962;9.018;2023-04-25T11:25:17;8.75;;;6.60;;
21239;SDS011;10778;48.962;9.018;2023-04-25T11:27:50;9.20;;;6.60;;
21239;SDS011;10778;48.962;9.018;2023-04-25T11:30:17;10.60;;;7.35;;
21239;SDS011;10778;48.962;9.018;2023-04-25T11:32:43;12.40;;;7.55;;
21239;SDS011;10778;48.962;9.018;2023-04-25T11:35:10;10.55;;;6.72;;
21239;SDS011;10778;48.962;9.018;2023-04-25T11:37:37;12.10;;;7.00;;
21239;SDS011;10778;48.962;9.018;2023-04-25T11:40:05;10.70;;;7.18;;
21239;SDS011;10778;48.962;9.018;2023-04-25T11:42:32;12.55;;;7.13;;
21239;SDS011;10778;48.962;9.018;2023-04-25T11:44:59;11.20;;;8.02;;
21239;SDS011;10778;48.962;9.018;2023-04-25T11:47:29;11.43;;;7.95;;
21239;SDS011;10778;48.962;9.018;2023-04-25T11:49:59;11.40;;;7.43;;
21239;SDS011;10778;48.962;9.018;2023-04-25T11:52:39;11.50;;;7.72;;
21239;SDS011;10778;48.962;9.018;2023-04-25T11:55:07;14.13;;;8.18;;
21239;SDS011;10778;48.962;9.018;2023-04-25T11:57:34;10.57;;;7.82;;
21239;SDS011;10778;48.962;9.018;2023-04-25T12:00:07;11.88;;;8.05;;
21239;SDS011;10778;48.962;9.018;2023-04-25T12:02:42;14.05;;;9.23;;
21239;SDS011;10778;48.962;9.018;2023-04-25T12:05:10;16.00;;;11.10;;
21239;SDS011;10778;48.962;9.018;2023-04-25T12:07:37;11.70;;;8.88;;
21239;SDS011;10778;48.962;9.018;2023-04-25T12:10:04;15.10;;;9.48;;
21239;SDS011;10778;48.962;9.018;2023-04-25T12:12:33;12.73;;;8.13;;
21239;SDS011;10778;48.962;9.018;2023-04-25T12:15:22;14.57;;;9.60;;
21239;SDS011;10778;48.962;9.018;2023-04-25T12:17:50;14.60;;;9.23;;
21239;SDS011;10778;48.962;9.018;2023-04-25T12:20:21;12.10;;;8.68;;
21239;SDS011;10778;48.962;9.018;2023-04-25T12:22:50;14.77;;;8.52;;
21239;SDS011;10778;48.962;9.018;2023-04-25T12:25:33;16.35;;;10.02;;
21239;SDS011;10778;48.962;9.018;2023-04-25T12:33:32;14.20;;;9.85;;
21239;SDS011;10778;48.962;9.018;2023-04-25T12:36:00;16.58;;;10.77;;
21239;SDS011;10778;48.962;9.018;2023-04-25T12:38:30;14.20;;;10.30;;
21239;SDS011;10778;48.962;9.018;2023-04-25T12:40:57;16.67;;;10.32;;
21239;SDS011;10778;48.962;9.018;2023-04-25T12:43:24;16.02;;;11.27;;
21239;SDS011;10778;48.962;9.018;2023-04-25T12:45:50;16.95;;;11.90;;
21239;SDS011;10778;48.962;9.018;2023-04-25T12:48:18;16.10;;;10.95;;
21239;SDS011;10778;48.962;9.018;2023-04-25T12:50:45;13.98;;;10.70;;
21239;SDS011;10778;48.962;9.018;2023-04-25T12:53:14;14.70;;;11.07;;
21239;SDS011;10778;48.962;9.018;2023-04-25T12:55:42;15.27;;;10.70;;
21239;SDS011;10778;48.962;9.018;2023-04-25T12:58:08;13.82;;;10.23;;
21239;SDS011;10778;48.962;9.018;2023-04-25T13:00:34;14.85;;;10.18;;
21239;SDS011;10778;48.962;9.018;2023-04-25T13:03:00;13.05;;;10.65;;
21239;SDS011;10778;48.962;9.018;2023-04-25T13:05:26;13.85;;;10.55;;
21239;SDS011;10778;48.962;9.018;2023-04-25T13:07:52;13.77;;;10.00;;
21239;SDS011;10778;48.962;9.018;2023-04-25T13:10:18;15.82;;;10.82;;
21239;SDS011;10778;48.962;9.018;2023-04-25T13:12:44;13.13;;;9.57;;
21239;SDS011;10778;48.962;9.018;2023-04-25T13:15:11;14.32;;;9.70;;
21239;SDS011;10778;48.962;9.018;2023-04-25T13:17:37;15.43;;;10.90;;
21239;SDS011;10778;48.962;9.018;2023-04-25T13:20:05;15.88;;;10.93;;
21239;SDS011;10778;48.962;9.018;2023-04-25T13:22:35;13.38;;;9.65;;
21239;SDS011;10778;48.962;9.018;2023-04-25T13:25:03;16.42;;;10.40;;
21239;SDS011;10778;48.962;9.018;2023-04-25T13:27:29;17.42;;;9.68;;
21239;SDS011;10778;48.962;9.018;2023-04-25T13:29:58;12.43;;;9.25;;
21239;SDS011;10778;48.962;9.018;2023-04-25T13:32:24;13.23;;;8.57;;
21239;SDS011;10778;48.962;9.018;2023-04-25T13:34:50;20.88;;;10.20;;
21239;SDS011;10778;48.962;9.018;2023-04-25T13:37:16;13.73;;;8.68;;
21239;SDS011;10778;48.962;9.018;2023-04-25T13:39:42;13.35;;;7.88;;
21239;SDS011;10778;48.962;9.018;2023-04-25T13:42:08;11.60;;;8.05;;
21239;SDS011;10778;48.962;9.018;2023-04-25T13:44:34;12.35;;;8.38;;
21239;SDS011;10778;48.962;9.018;2023-04-25T13:47:00;12.63;;;8.00;;
21239;SDS011;10778;48.962;9.018;2023-04-25T13:49:26;11.02;;;8.07;;
21239;SDS011;10778;48.962;9.018;2023-04-25T13:54:56;12.07;;;8.68;;
21239;SDS011;10778;48.962;9.018;2023-04-25T13:57:22;12.82;;;9.15;;
21239;SDS011;10778;48.962;9.018;2023-04-25T13:59:48;13.93;;;9.88;;
21239;SDS011;10778;48.962;9.018;2023-04-25T14:02:16;12.38;;;8.57;;
21239;SDS011;10778;48.962;9.018;2023-04-25T14:04:42;11.77;;;8.20;;
21239;SDS011;10778;48.962;9.018;2023-04-25T14:07:08;13.55;;;8.20;;
21239;SDS011;10778;48.962;9.018;2023-04-25T14:09:34;12.90;;;8.68;;
21239;SDS011;10778;48.962;9.018;2023-04-25T14:12:00;11.75;;;7.97;;
21239;SDS011;10778;48.962;9.018;2023-04-25T14:14:27;10.48;;;7.90;;
21239;SDS011;10778;48.962;9.018;2023-04-25T14:16:53;13.65;;;8.57;;
21239;SDS011;10778;48.962;9.018;2023-04-25T14:19:20;13.65;;;8.75;;
21239;SDS011;10778;48.962;9.018;2023-04-25T14:21:46;12.10;;;8.57;;
21239;SDS011;10778;48.962;9.018;2023-04-25T14:24:13;12.13;;;8.98;;
21239;SDS011;10778;48.962;9.018;2023-04-25T14:26:39;13.18;;;8.10;;
21239;SDS011;10778;48.962;9.018;2023-04-25T14:29:06;12.50;;;8.13;;
21239;SDS011;10778;48.962;9.018;2023-04-25T14:31:33;15.52;;;10.57;;
21239;SDS011;10778;48.962;9.018;2023-04-25T14:33:59;15.98;;;10.27;;
21239;SDS011;10778;48.962;9.018;2023-04-25T14:36:26;16.40;;;11.40;;
21239;SDS011;10778;48.962;9.018;2023-04-25T14:38:53;14.48;;;9.13;;
21239;SDS011;10778;48.962;9.018;2023-04-25T14:41:19;14.90;;;8.93;;
21239;SDS011;10778;48.962;9.018;2023-04-25T14:43:45;12.50;;;8.13;;
21239;SDS011;10778;48.962;9.018;2023-04-25T14:46:11;14.07;;;8.45;;
21239;SDS011;10778;48.962;9.018;2023-04-25T14:48:37;11.25;;;8.27;;
21239;SDS011;10778;48.962;9.018;2023-04-25T14:51:04;14.20;;;7.85;;
21239;SDS011;10778;48.962;9.018;2023-04-25T14:53:30;12.40;;;8.48;;
21239;SDS011;10778;48.962;9.018;2023-04-25T14:55:57;15.55;;;9.63;;
21239;SDS011;10778;48.962;9.018;2023-04-25T14:58:23;13.50;;;8.48;;
21239;SDS011;10778;48.962;9.018;2023-04-25T15:00:49;15.02;;;9.00;;
21239;SDS011;10778;48.962;9.018;2023-04-25T15:03:16;16.95;;;10.07;;
21239;SDS011;10778;48.962;9.018;2023-04-25T15:05:43;15.52;;;9.60;;
21239;SDS011;10778;48.962;9.018;2023-04-25T15:08:09;13.65;;;7.30;;
21239;SDS011;10778;48.962;9.018;2023-04-25T15:10:36;12.70;;;7.45;;